Time;durP1;ratioP1;P1;durP2;ratioP2;P2;SDS_P1;SDS_P2;PMS_P1;PMS_P2;Temp;Humidity;BMP_temperature;BMP_pressure;BME280_temperature;BME280_humidity;BME280_pressure;Samples;Min_cycle;Max_cycle;Signal;HPM_P1;HPM_P2
2022/03/13 00:00:50;;;;;;;22.08;12.77;;;;;;;1.65;97.09;102416.59;4899721;29;20064;-75
2022/03/13 00:03:37;;;;;;;20.67;11.88;;;;;;;1.23;98.59;102406.91;4899720;29;20450;-74
2022/03/13 00:06:35;;;;;;;18.35;11.93;;;;;;;1.33;100.00;102406.50;4902757;29;20068;-74
2022/03/13 00:09:22;;;;;;;17.85;11.57;;;;;;;1.13;100.00;102398.66;4902768;29;20427;-74
2022/03/13 00:12:10;;;;;;;19.00;12.07;;;;;;;1.27;100.00;102402.75;4902343;29;20029;-74
2022/03/13 00:14:57;;;;;;;22.38;11.95;;;;;;;1.10;100.00;102395.94;4902115;29;20469;-73
2022/03/13 00:17:43;;;;;;;21.17;12.38;;;;;;;1.27;100.00;102393.31;4903211;29;20375;-74
2022/03/13 00:20:30;;;;;;;19.40;11.98;;;;;;;1.00;100.00;102383.41;4902001;29;20040;-75
2022/03/13 00:23:16;;;;;;;17.70;11.63;;;;;;;0.99;100.00;102386.78;4901869;29;20029;-74
2022/03/13 00:26:03;;;;;;;18.02;11.40;;;;;;;0.69;100.00;102388.81;4903191;29;20028;-74
2022/03/13 00:28:49;;;;;;;20.60;12.02;;;;;;;0.98;100.00;102385.94;4903417;29;20042;-73
2022/03/13 00:31:35;;;;;;;17.85;11.93;;;;;;;0.92;100.00;102393.34;4903018;29;20033;-73
2022/03/13 00:34:21;;;;;;;19.55;11.98;;;;;;;1.06;100.00;102387.16;4903435;29;20052;-73
2022/03/13 00:37:07;;;;;;;19.77;12.23;;;;;;;1.28;100.00;102383.91;4903221;29;20139;-75
2022/03/13 00:39:54;;;;;;;20.08;11.68;;;;;;;1.42;100.00;102381.13;4901963;29;20024;-73
2022/03/13 00:42:40;;;;;;;19.63;12.38;;;;;;;1.15;99.98;102373.78;4903218;29;20084;-74
2022/03/13 00:45:27;;;;;;;21.17;11.82;;;;;;;0.79;100.00;102367.78;4902734;29;20025;-75
2022/03/13 00:48:13;;;;;;;23.92;12.50;;;;;;;1.08;100.00;102362.31;4902936;29;20107;-75
2022/03/13 00:50:59;;;;;;;21.70;12.60;;;;;;;1.03;100.00;102358.63;4902125;29;20036;-74
2022/03/13 00:53:45;;;;;;;21.83;12.57;;;;;;;1.36;100.00;102359.31;4887851;29;20032;-75
2022/03/13 00:56:31;;;;;;;18.88;12.13;;;;;;;1.37;100.00;102359.34;4902429;29;20042;-74
2022/03/13 00:59:17;;;;;;;19.90;12.45;;;;;;;1.05;100.00;102354.44;4902837;29;20050;-74
2022/03/13 01:02:04;;;;;;;18.92;11.70;;;;;;;1.53;100.00;102353.19;4901171;29;20458;-74
2022/03/13 01:04:50;;;;;;;21.90;12.63;;;;;;;1.43;100.00;102356.16;4902467;29;20466;-74
2022/03/13 01:07:38;;;;;;;19.17;11.90;;;;;;;1.01;100.00;102352.53;4901303;29;20361;-74
2022/03/13 01:10:24;;;;;;;18.30;11.30;;;;;;;1.14;100.00;102349.69;4902819;29;20035;-74
2022/03/13 01:13:10;;;;;;;20.13;12.52;;;;;;;0.99;100.00;102346.41;4902059;29;20112;-74
2022/03/13 01:16:20;;;;;;;23.08;11.85;;;;;;;1.26;100.00;102347.69;4901410;29;20032;-74
2022/03/13 01:19:07;;;;;;;19.13;12.15;;;;;;;1.71;100.00;102335.91;4901049;29;20429;-76
2022/03/13 01:21:53;;;;;;;18.60;11.52;;;;;;;1.46;100.00;102344.31;4901837;29;20525;-74
2022/03/13 01:24:43;;;;;;;19.17;11.57;;;;;;;1.22;100.00;102340.63;4902303;29;20036;-75
2022/03/13 01:27:29;;;;;;;18.20;11.43;;;;;;;1.16;100.00;102329.13;4901749;29;20048;-75
2022/03/13 01:30:15;;;;;;;17.65;10.77;;;;;;;0.94;100.00;102335.00;4902044;29;20032;-74
2022/03/13 01:33:03;;;;;;;17.90;10.80;;;;;;;1.18;100.00;102332.66;4901730;29;20473;-75
2022/03/13 01:35:48;;;;;;;18.83;11.70;;;;;;;1.20;100.00;102331.03;4901610;29;20131;-74
2022/03/13 01:38:34;;;;;;;18.10;11.80;;;;;;;1.38;100.00;102343.06;4901656;29;20047;-74
2022/03/13 01:41:21;;;;;;;20.80;11.48;;;;;;;1.40;100.00;102335.41;4902010;29;20029;-73
2022/03/13 01:44:07;;;;;;;19.15;11.65;;;;;;;1.33;100.00;102329.03;4901631;29;20040;-75
2022/03/13 01:46:53;;;;;;;20.58;12.43;;;;;;;1.30;100.00;102323.78;4901741;29;20390;-75
2022/03/13 01:49:39;;;;;;;22.38;13.10;;;;;;;1.26;100.00;102327.03;4900878;29;20108;-74
2022/03/13 01:52:27;;;;;;;18.77;12.13;;;;;;;1.06;100.00;102316.59;4901648;29;20040;-74
2022/03/13 01:55:13;;;;;;;19.00;12.25;;;;;;;1.19;100.00;102322.41;4901550;29;20492;-75
2022/03/13 01:57:58;;;;;;;19.15;11.98;;;;;;;1.22;100.00;102329.38;4900173;29;20040;-74
2022/03/13 02:00:46;;;;;;;21.83;12.32;;;;;;;1.05;100.00;102320.00;4901543;29;20045;-74
2022/03/13 02:03:31;;;;;;;19.08;12.55;;;;;;;1.09;100.00;102317.66;4901302;29;20044;-74
2022/03/13 02:06:20;;;;;;;18.85;11.95;;;;;;;1.23;100.00;102324.31;4901428;29;20033;-75
2022/03/13 02:09:07;;;;;;;19.00;11.20;;;;;;;0.93;100.00;102320.31;4899788;29;20032;-74
2022/03/13 02:11:54;;;;;;;18.70;11.63;;;;;;;0.91;100.00;102316.78;4900846;29;20040;-74
2022/03/13 02:14:40;;;;;;;20.05;12.27;;;;;;;0.92;100.00;102318.53;4900534;29;20111;-75
2022/03/13 02:17:32;;;;;;;20.48;12.02;;;;;;;1.06;100.00;102317.50;4901199;29;20043;-74
2022/03/13 02:20:23;;;;;;;20.05;12.82;;;;;;;0.80;100.00;102319.69;4900682;29;20370;-73
2022/03/13 02:23:20;;;;;;;18.45;12.23;;;;;;;0.89;100.00;102321.00;4899877;29;20366;-74
2022/03/13 02:26:07;;;;;;;19.88;11.77;;;;;;;0.99;100.00;102320.59;4900856;29;20032;-74
2022/03/13 02:28:55;;;;;;;19.05;11.35;;;;;;;0.94;100.00;102316.94;4900608;29;20036;-74
2022/03/13 02:31:42;;;;;;;18.70;12.38;;;;;;;0.82;100.00;102312.88;4900933;29;20370;-74
2022/03/13 02:34:28;;;;;;;20.70;12.40;;;;;;;0.56;100.00;102314.22;4899511;29;20422;-74
2022/03/13 02:37:34;;;;;;;19.80;12.13;;;;;;;0.83;100.00;102312.06;4901109;29;20207;-74
2022/03/13 02:40:23;;;;;;;21.33;13.18;;;;;;;1.14;100.00;102321.31;4899825;29;20040;-75
2022/03/13 02:43:09;;;;;;;20.67;12.23;;;;;;;0.81;100.00;102319.75;4902181;29;20123;-74
2022/03/13 02:45:55;;;;;;;20.33;12.88;;;;;;;0.77;100.00;102317.84;4904226;29;20068;-73
2022/03/13 02:48:40;;;;;;;20.75;12.63;;;;;;;1.15;100.00;102320.50;4902450;29;20036;-74
2022/03/13 02:51:26;;;;;;;19.58;12.05;;;;;;;1.43;100.00;102320.03;4886981;29;20043;-74
2022/03/13 02:54:14;;;;;;;18.27;11.60;;;;;;;1.37;100.00;102322.34;4900881;29;20461;-74
2022/03/13 02:57:00;;;;;;;19.35;11.80;;;;;;;1.19;100.00;102319.81;4885705;29;20387;-73
2022/03/13 02:59:46;;;;;;;19.08;12.20;;;;;;;0.79;100.00;102321.38;4887400;29;20039;-73
2022/03/13 03:02:32;;;;;;;18.10;11.73;;;;;;;1.14;100.00;102316.16;4899691;29;20028;-75
2022/03/13 03:05:18;;;;;;;17.88;11.50;;;;;;;1.23;100.00;102323.41;4900000;29;20049;-73
2022/03/13 03:08:04;;;;;;;20.38;12.18;;;;;;;1.20;100.00;102318.13;4900531;29;20075;-74
2022/03/13 03:10:50;;;;;;;19.98;12.18;;;;;;;1.36;100.00;102324.03;4886559;29;20119;-74
2022/03/13 03:13:36;;;;;;;22.33;12.52;;;;;;;1.20;100.00;102324.16;4900803;29;20088;-73
2022/03/13 03:16:22;;;;;;;24.90;12.73;;;;;;;1.42;100.00;102323.44;4900419;29;20429;-74
2022/03/13 03:19:07;;;;;;;21.05;12.90;;;;;;;1.19;100.00;102318.91;4900102;29;20056;-76
2022/03/13 03:21:54;;;;;;;21.38;12.73;;;;;;;1.02;100.00;102328.50;4900328;29;20119;-74
2022/03/13 03:24:40;;;;;;;22.17;13.35;;;;;;;1.39;100.00;102323.28;4899512;29;20184;-74
2022/03/13 03:27:25;;;;;;;19.35;12.18;;;;;;;1.45;100.00;102324.44;4899680;29;20033;-74
2022/03/13 03:30:11;;;;;;;17.75;11.55;;;;;;;1.28;100.00;102322.81;4900427;29;20024;-73
2022/03/13 03:33:01;;;;;;;20.13;12.02;;;;;;;1.44;100.00;102322.69;4900037;29;20028;-75
2022/03/13 03:35:47;;;;;;;19.15;12.25;;;;;;;1.27;100.00;102328.78;4899887;29;20162;-74
2022/03/13 03:38:33;;;;;;;20.13;12.63;;;;;;;1.22;100.00;102324.22;4899169;29;20033;-75
2022/03/13 03:41:18;;;;;;;19.15;12.57;;;;;;;1.45;100.00;102324.44;4904143;29;20465;-74
2022/03/13 03:44:05;;;;;;;22.85;13.68;;;;;;;1.60;100.00;102325.13;4903576;29;20433;-75
2022/03/13 03:46:52;;;;;;;22.90;14.55;;;;;;;1.46;100.00;102318.47;4903918;29;20115;-74
2022/03/13 03:49:38;;;;;;;22.48;13.00;;;;;;;1.20;100.00;102329.31;4903234;29;20525;-74
2022/03/13 03:52:23;;;;;;;20.60;12.90;;;;;;;1.15;100.00;102320.50;4903150;29;20060;-74
2022/03/13 03:55:09;;;;;;;20.58;12.80;;;;;;;0.98;100.00;102316.25;4903786;29;20028;-74
2022/03/13 03:57:55;;;;;;;18.95;12.57;;;;;;;0.87;100.00;102316.56;4904186;29;20035;-74
2022/03/13 04:00:40;;;;;;;19.85;11.95;;;;;;;0.77;100.00;102315.25;4903411;29;20109;-75
2022/03/13 04:03:26;;;;;;;19.15;12.05;;;;;;;1.05;100.00;102323.47;4903028;29;20020;-74
2022/03/13 04:06:12;;;;;;;17.90;11.90;;;;;;;0.94;100.00;102321.19;4902993;29;20036;-74
2022/03/13 04:08:58;;;;;;;20.65;12.27;;;;;;;0.96;100.00;102328.19;4903543;29;20084;-74
2022/03/13 04:11:47;;;;;;;19.42;12.35;;;;;;;0.61;100.00;102327.34;4902411;29;20188;-74
2022/03/13 04:14:35;;;;;;;19.85;11.48;;;;;;;1.11;100.00;102330.59;4903445;29;20399;-73
2022/03/13 04:17:20;;;;;;;18.38;11.68;;;;;;;1.11;100.00;102320.25;4903856;29;20484;-74
2022/03/13 04:20:07;;;;;;;17.10;10.88;;;;;;;1.49;100.00;102323.75;4902740;29;20032;-74
2022/03/13 04:22:52;;;;;;;21.40;12.75;;;;;;;0.92;100.00;102322.84;4903157;29;20522;-74
2022/03/13 04:25:38;;;;;;;17.60;11.25;;;;;;;0.66;100.00;102321.59;4888329;29;20398;-74
2022/03/13 04:28:24;;;;;;;17.35;11.02;;;;;;;0.61;100.00;102314.44;4903349;29;20103;-74
2022/03/13 04:31:12;;;;;;;20.92;12.40;;;;;;;0.17;100.00;102316.56;4901813;29;20067;-74
2022/03/13 04:33:57;;;;;;;21.27;12.68;;;;;;;-0.26;100.00;102310.94;4902563;29;20021;-73
2022/03/13 04:36:44;;;;;;;21.17;12.95;;;;;;;-0.05;100.00;102309.47;4888522;29;20071;-74
2022/03/13 04:39:35;;;;;;;26.38;13.13;;;;;;;-0.10;100.00;102314.41;4902378;29;20414;-74
2022/03/13 04:42:21;;;;;;;23.85;13.63;;;;;;;-0.32;100.00;102318.38;4902709;29;20056;-73
2022/03/13 04:45:07;;;;;;;22.20;13.55;;;;;;;-0.25;100.00;102320.44;4902659;29;20107;-75
2022/03/13 04:47:53;;;;;;;26.55;14.80;;;;;;;-0.20;100.00;102316.44;4902002;29;20024;-74
2022/03/13 04:50:39;;;;;;;23.15;14.40;;;;;;;-0.27;100.00;102316.91;4902445;29;20073;-75
2022/03/13 04:53:25;;;;;;;28.60;15.05;;;;;;;-0.29;100.00;102326.25;4902646;29;20419;-75
2022/03/13 04:56:11;;;;;;;25.65;15.55;;;;;;;-0.41;100.00;102325.59;4901624;29;20176;-74
2022/03/13 04:58:57;;;;;;;27.70;15.02;;;;;;;-0.20;100.00;102331.88;4902531;29;20032;-74
2022/03/13 05:01:43;;;;;;;25.83;15.73;;;;;;;-0.12;100.00;102331.44;4902341;29;20033;-74
2022/03/13 05:04:31;;;;;;;29.17;16.88;;;;;;;-0.02;100.00;102325.97;4902260;29;20072;-74
2022/03/13 05:07:19;;;;;;;29.33;15.95;;;;;;;-0.51;100.00;102321.66;4901437;29;20032;-74
2022/03/13 05:10:06;;;;;;;31.70;17.35;;;;;;;-0.20;100.00;102321.59;4901670;29;20029;-74
2022/03/13 05:12:52;;;;;;;28.13;16.52;;;;;;;-0.07;100.00;102321.38;4902097;29;20029;-72
2022/03/13 05:15:39;;;;;;;32.67;17.88;;;;;;;-0.18;100.00;102325.09;4902137;29;20048;-74
2022/03/13 05:18:25;;;;;;;30.45;16.98;;;;;;;-0.15;100.00;102322.69;4901463;29;20036;-73
2022/03/13 05:21:11;;;;;;;27.80;16.70;;;;;;;-0.30;100.00;102325.38;4901985;29;20056;-74
2022/03/13 05:23:57;;;;;;;32.47;19.17;;;;;;;-0.02;100.00;102325.97;4900935;29;20096;-74
2022/03/13 05:26:44;;;;;;;32.55;18.92;;;;;;;-0.02;100.00;102323.41;4901978;29;20036;-75
2022/03/13 05:29:30;;;;;;;37.45;20.75;;;;;;;0.24;100.00;102324.66;4901297;29;20040;-73
2022/03/13 05:32:15;;;;;;;34.85;19.02;;;;;;;0.26;100.00;102332.47;4901906;29;20410;-75
2022/03/13 05:35:04;;;;;;;35.25;20.08;;;;;;;0.54;100.00;102338.16;4901626;29;20055;-74
2022/03/13 05:37:51;;;;;;;35.05;19.50;;;;;;;0.55;100.00;102338.25;4901716;29;20364;-74
2022/03/13 05:40:37;;;;;;;36.15;20.17;;;;;;;0.49;100.00;102339.66;4901012;29;20555;-74
2022/03/13 05:43:26;;;;;;;37.17;20.42;;;;;;;0.63;100.00;102338.63;4901419;29;20037;-74
2022/03/13 05:46:11;;;;;;;37.00;19.30;;;;;;;0.77;100.00;102342.75;4902222;29;20032;-74
2022/03/13 05:48:57;;;;;;;30.30;18.80;;;;;;;0.69;100.00;102333.75;4901285;29;20036;-74
2022/03/13 05:51:43;;;;;;;37.78;19.65;;;;;;;0.96;100.00;102342.81;4901834;29;20021;-73
2022/03/13 05:54:29;;;;;;;34.95;19.45;;;;;;;0.71;100.00;102337.28;4901694;29;20590;-73
2022/03/13 05:57:14;;;;;;;32.78;18.48;;;;;;;0.87;100.00;102344.94;4901321;29;20366;-74
2022/03/13 06:00:01;;;;;;;32.00;17.98;;;;;;;0.90;100.00;102350.25;4900957;29;20036;-74
2022/03/13 06:02:47;;;;;;;30.88;17.55;;;;;;;1.12;100.00;102346.16;4900411;29;20084;-74
2022/03/13 06:05:35;;;;;;;29.08;15.98;;;;;;;1.17;100.00;102342.09;4904477;29;20048;-74
2022/03/13 06:08:20;;;;;;;31.42;16.08;;;;;;;1.02;100.00;102351.72;4903943;29;20454;-73
2022/03/13 06:11:07;;;;;;;29.77;15.63;;;;;;;0.91;100.00;102347.75;4901688;29;20104;-74
2022/03/13 06:13:52;;;;;;;25.88;15.82;;;;;;;0.98;100.00;102344.63;4901275;29;20100;-73
2022/03/13 06:16:38;;;;;;;29.52;15.60;;;;;;;1.20;100.00;102347.38;4901472;29;20366;-75
2022/03/13 06:19:24;;;;;;;29.05;15.80;;;;;;;1.19;100.00;102350.78;4901018;29;20425;-75
2022/03/13 06:22:12;;;;;;;24.00;14.70;;;;;;;1.04;100.00;102350.06;4900901;29;20036;-75
2022/03/13 06:24:57;;;;;;;22.73;13.23;;;;;;;1.05;100.00;102357.03;4900632;29;20037;-74
2022/03/13 06:27:44;;;;;;;24.17;13.77;;;;;;;1.07;100.00;102354.47;4900439;29;20111;-75
2022/03/13 06:30:30;;;;;;;26.02;14.35;;;;;;;1.27;100.00;102354.59;4901318;29;20036;-75
2022/03/13 06:33:15;;;;;;;25.42;15.07;;;;;;;1.21;100.00;102356.91;4900635;29;20457;-75
2022/03/13 06:36:02;;;;;;;26.10;14.43;;;;;;;1.32;100.00;102354.81;4900541;29;20020;-76
2022/03/13 06:38:47;;;;;;;27.25;14.82;;;;;;;1.43;100.00;102358.75;4900692;29;20028;-74
2022/03/13 06:41:33;;;;;;;24.88;14.23;;;;;;;1.51;100.00;102352.22;4901146;29;20036;-75
2022/03/13 06:44:19;;;;;;;29.10;14.20;;;;;;;1.64;100.00;102350.28;4899323;29;20032;-73
2022/03/13 06:47:05;;;;;;;27.67;14.27;;;;;;;1.77;100.00;102346.53;4900435;29;20028;-73
2022/03/13 06:49:50;;;;;;;23.88;13.73;;;;;;;1.53;100.00;102345.47;4900665;29;20366;-79
2022/03/13 06:52:36;;;;;;;27.27;15.35;;;;;;;1.78;100.00;102354.34;4901243;29;20044;-73
2022/03/13 06:55:23;;;;;;;21.65;13.52;;;;;;;1.94;100.00;102346.44;4900235;29;20035;-74
2022/03/13 06:58:08;;;;;;;20.52;12.43;;;;;;;1.69;100.00;102350.50;4900421;29;20119;-75
2022/03/13 07:00:54;;;;;;;17.42;11.30;;;;;;;1.77;99.22;102343.97;4900110;29;20052;-73
2022/03/13 07:03:40;;;;;;;15.43;9.40;;;;;;;1.88;93.00;102340.16;4898976;29;20135;-75
2022/03/13 07:06:26;;;;;;;15.32;9.25;;;;;;;1.86;88.45;102345.25;4900664;29;20390;-75
2022/03/13 07:09:12;;;;;;;12.38;8.50;;;;;;;2.13;87.84;102340.38;4900719;29;20040;-74
2022/03/13 07:11:58;;;;;;;15.75;9.15;;;;;;;2.66;85.42;102341.72;4901374;29;20039;-79
2022/03/13 07:14:47;;;;;;;13.80;9.18;;;;;;;2.96;82.88;102347.22;4903637;29;20438;-73
2022/03/13 07:17:32;;;;;;;13.85;8.77;;;;;;;2.97;80.00;102349.88;4903064;29;20370;-74
2022/03/13 07:20:18;;;;;;;12.13;7.88;;;;;;;3.50;76.93;102354.50;4904434;29;20036;-74
2022/03/13 07:23:04;;;;;;;13.55;8.80;;;;;;;3.52;73.46;102352.84;4904075;29;20059;-74
2022/03/13 07:25:51;;;;;;;13.48;8.13;;;;;;;3.36;73.10;102351.41;4890740;29;20024;-73
2022/03/13 07:28:37;;;;;;;12.60;8.13;;;;;;;3.58;72.96;102358.28;4904980;29;20036;-73
2022/03/13 07:31:23;;;;;;;11.65;7.75;;;;;;;3.46;72.21;102358.69;4904595;29;20039;-74
2022/03/13 07:34:08;;;;;;;12.48;7.82;;;;;;;3.59;70.95;102353.16;4904333;29;20043;-74
2022/03/13 07:36:54;;;;;;;12.20;8.18;;;;;;;3.90;71.77;102352.53;4905629;29;20095;-76
2022/03/13 07:39:41;;;;;;;12.95;8.25;;;;;;;3.98;71.81;102356.28;4890595;29;20032;-74
2022/03/13 07:42:27;;;;;;;11.90;7.95;;;;;;;3.92;71.86;102354.34;4904417;29;20076;-74
2022/03/13 07:45:13;;;;;;;13.43;8.73;;;;;;;3.79;70.33;102362.53;4904589;29;20454;-75
2022/03/13 07:47:59;;;;;;;15.80;7.93;;;;;;;4.68;69.65;102355.22;4903871;29;20128;-76
2022/03/13 07:50:45;;;;;;;12.55;8.02;;;;;;;4.48;68.74;102357.16;4905254;29;20039;-75
2022/03/13 07:53:32;;;;;;;9.98;7.50;;;;;;;4.69;68.64;102362.16;4890338;29;20025;-75
2022/03/13 07:56:18;;;;;;;11.32;8.23;;;;;;;4.73;68.20;102359.72;4906188;29;20043;-77
2022/03/13 07:59:04;;;;;;;13.18;8.23;;;;;;;4.66;67.66;102365.53;4903739;29;20040;-76
2022/03/13 08:01:50;;;;;;;11.07;8.00;;;;;;;4.76;66.19;102367.63;4904599;29;20115;-74
2022/03/13 08:04:36;;;;;;;12.40;8.35;;;;;;;5.08;64.04;102363.41;4905323;29;20063;-78
2022/03/13 08:07:22;;;;;;;14.43;8.57;;;;;;;4.76;66.09;102365.03;4905507;29;20039;-77
2022/03/13 08:10:09;;;;;;;12.35;8.00;;;;;;;4.44;65.72;102360.50;4906812;29;20020;-76
2022/03/13 08:12:55;;;;;;;12.73;7.93;;;;;;;5.29;64.99;102370.16;4906154;29;20043;-77
2022/03/13 08:15:41;;;;;;;11.20;7.95;;;;;;;5.42;63.08;102365.31;4905393;29;20473;-74
2022/03/13 08:18:28;;;;;;;11.68;8.23;;;;;;;5.55;62.07;102357.94;4904163;29;20036;-75
2022/03/13 08:21:14;;;;;;;12.52;8.13;;;;;;;5.86;60.83;102354.50;4902620;29;20404;-77
2022/03/13 08:23:59;;;;;;;12.55;8.68;;;;;;;5.97;60.98;102350.44;4902596;29;20032;-75
2022/03/13 08:26:45;;;;;;;14.65;8.57;;;;;;;5.78;60.29;102355.97;4903141;29;20530;-74
2022/03/13 08:29:31;;;;;;;14.30;8.57;;;;;;;5.75;60.01;102350.69;4902186;29;20370;-75
2022/03/13 08:32:17;;;;;;;16.63;9.10;;;;;;;6.12;60.97;102361.28;4902971;29;20025;-75
2022/03/13 08:35:03;;;;;;;12.43;7.90;;;;;;;6.29;59.02;102366.09;4902410;29;20111;-74
2022/03/13 08:37:49;;;;;;;12.60;8.27;;;;;;;5.50;60.86;102358.63;4902478;29;20041;-74
2022/03/13 08:40:34;;;;;;;13.63;8.43;;;;;;;6.04;60.60;102368.91;4903514;29;20438;-75
2022/03/13 08:43:20;;;;;;;12.30;8.32;;;;;;;6.20;60.73;102362.38;4902225;29;20183;-74
2022/03/13 08:46:06;;;;;;;12.73;8.98;;;;;;;6.76;59.97;102356.88;4902324;29;20028;-75
2022/03/13 08:48:52;;;;;;;12.40;8.82;;;;;;;6.96;59.40;102368.63;4902562;29;20394;-74
2022/03/13 08:51:38;;;;;;;13.05;9.23;;;;;;;6.71;57.88;102367.16;4902501;29;20092;-75
2022/03/13 08:54:24;;;;;;;14.45;9.63;;;;;;;6.74;58.28;102369.84;4902427;29;20107;-76
2022/03/13 08:57:10;;;;;;;14.48;10.00;;;;;;;6.51;58.02;102365.78;4901420;29;20064;-74
2022/03/13 08:59:56;;;;;;;15.48;9.63;;;;;;;6.68;58.48;102367.09;4887966;29;20043;-74
2022/03/13 09:02:43;;;;;;;14.10;9.13;;;;;;;6.60;59.22;102368.66;4902085;28;20044;-75
2022/03/13 09:05:29;;;;;;;14.23;9.70;;;;;;;6.22;59.56;102369.38;4902549;29;20068;-75
2022/03/13 09:08:15;;;;;;;15.40;9.60;;;;;;;6.33;60.13;102367.94;4901971;29;20043;-74
2022/03/13 09:11:01;;;;;;;14.13;9.63;;;;;;;6.28;58.61;102366.94;4908251;29;20036;-73
2022/03/13 09:13:47;;;;;;;15.10;10.05;;;;;;;6.75;57.99;102363.78;4904423;29;20092;-74
2022/03/13 09:16:41;;;;;;;15.23;9.68;;;;;;;6.76;57.12;102369.88;4902296;29;20055;-74
2022/03/13 09:19:27;;;;;;;13.82;9.48;;;;;;;7.14;57.43;102361.22;4902295;29;20383;-75
2022/03/13 09:22:14;;;;;;;12.20;9.23;;;;;;;6.65;57.30;102369.63;4902007;29;20020;-74
2022/03/13 09:25:00;;;;;;;14.82;10.25;;;;;;;6.46;57.74;102358.69;4902164;29;20036;-74
2022/03/13 09:27:48;;;;;;;21.50;9.48;;;;;;;7.03;59.03;102352.31;4902180;29;20032;-75
2022/03/13 09:30:33;;;;;;;13.90;9.27;;;;;;;7.30;57.44;102347.69;4902226;29;20036;-74
2022/03/13 09:33:19;;;;;;;16.13;10.10;;;;;;;7.38;57.30;102343.50;4901709;29;20434;-74
2022/03/13 09:36:05;;;;;;;15.63;9.38;;;;;;;7.21;56.67;102347.50;4901847;29;20410;-74
2022/03/13 09:38:52;;;;;;;14.07;9.82;;;;;;;7.20;56.33;102341.38;4901270;29;20024;-75
2022/03/13 09:41:38;;;;;;;16.50;9.75;;;;;;;7.35;56.61;102336.50;4901644;29;20032;-74
2022/03/13 09:44:25;;;;;;;14.45;9.50;;;;;;;7.03;56.57;102332.31;4900849;29;20036;-74
2022/03/13 09:47:11;;;;;;;17.67;9.50;;;;;;;7.73;57.16;102329.47;4901967;29;20032;-75
2022/03/13 09:49:57;;;;;;;18.40;9.98;;;;;;;7.54;55.32;102322.13;4902088;29;20572;-74
2022/03/13 09:52:43;;;;;;;15.40;9.63;;;;;;;8.01;54.36;102318.72;4902560;29;20122;-75
2022/03/13 09:55:29;;;;;;;14.38;8.82;;;;;;;7.68;53.95;102308.50;4901840;29;20033;-74
2022/03/13 09:58:14;;;;;;;14.07;8.93;;;;;;;7.88;53.11;102308.91;4901070;29;20024;-74
2022/03/13 10:01:01;;;;;;;12.25;9.18;;;;;;;7.92;53.38;102310.72;4900517;29;20051;-75
2022/03/13 10:03:46;;;;;;;12.32;8.45;;;;;;;7.48;51.46;102312.44;4900871;29;20048;-74
2022/03/13 10:07:07;;;;;;;12.52;8.40;;;;;;;7.70;53.32;102305.94;4901124;29;20051;-74
2022/03/13 10:09:55;;;;;;;13.40;8.52;;;;;;;7.08;52.05;102312.44;4900702;29;20311;-75
2022/03/13 10:12:41;;;;;;;13.27;8.63;;;;;;;7.10;52.99;102317.69;4901412;29;20060;-75
2022/03/13 10:15:28;;;;;;;17.33;8.90;;;;;;;6.97;53.56;102311.34;4901135;29;20119;-75
2022/03/13 10:18:17;;;;;;;13.85;8.82;;;;;;;7.96;51.23;102309.91;4901921;29;20047;-74
2022/03/13 10:21:16;;;;;;;12.57;8.48;;;;;;;8.08;50.71;102304.94;4900958;29;20029;-74
2022/03/13 10:24:10;;;;;;;12.07;8.43;;;;;;;7.64;50.56;102311.03;4900498;29;20028;-72
2022/03/13 10:27:28;;;;;;;13.68;9.10;;;;;;;7.88;48.78;102308.91;4900794;29;20171;-73
2022/03/13 10:30:17;;;;;;;14.02;8.65;;;;;;;7.59;49.47;102304.88;4892418;29;20445;-75
2022/03/13 10:33:03;;;;;;;11.85;8.25;;;;;;;7.91;49.94;102308.94;4900564;29;20442;-75
2022/03/13 10:35:49;;;;;;;11.85;8.10;;;;;;;7.85;47.80;102306.22;4900190;29;20051;-75
2022/03/13 10:38:35;;;;;;;13.45;8.32;;;;;;;8.23;47.96;102302.59;4900792;29;20509;-74
2022/03/13 10:41:44;;;;;;;16.52;9.43;;;;;;;8.17;47.15;102295.53;4900755;29;20056;-75
2022/03/13 10:44:34;;;;;;;15.07;8.82;;;;;;;7.80;45.82;102294.84;4900055;29;20091;-75
2022/03/13 10:47:25;;;;;;;15.63;9.13;;;;;;;8.01;46.30;102297.81;4901249;29;20458;-75
2022/03/13 10:50:16;;;;;;;13.90;8.57;;;;;;;7.94;46.54;102295.94;4899993;29;20028;-75
2022/03/13 10:53:12;;;;;;;14.82;8.80;;;;;;;8.43;45.99;102288.13;4899662;29;20055;-75
2022/03/13 10:56:14;;;;;;;13.77;8.77;;;;;;;8.11;46.50;102291.91;4900658;29;20036;-75
2022/03/13 10:59:15;;;;;;;14.13;8.73;;;;;;;8.67;45.13;102292.03;4900123;29;20032;-74
2022/03/13 11:02:14;;;;;;;13.85;8.50;;;;;;;8.23;44.66;102281.72;4900075;29;20028;-74
2022/03/13 11:05:00;;;;;;;13.63;9.20;;;;;;;8.31;45.13;102285.31;4899836;29;20159;-74
2022/03/13 11:07:46;;;;;;;14.90;9.13;;;;;;;8.53;44.42;102284.84;4899380;29;20028;-75
2022/03/13 11:10:32;;;;;;;12.00;8.45;;;;;;;8.44;44.80;102284.69;4900648;28;20036;-75
2022/03/13 11:13:20;;;;;;;14.60;9.23;;;;;;;8.72;44.53;102284.28;4899354;29;20025;-74
2022/03/13 11:16:09;;;;;;;12.73;8.43;;;;;;;9.14;43.90;102280.53;4900769;29;20323;-74
2022/03/13 11:19:03;;;;;;;12.60;7.68;;;;;;;8.41;42.62;102280.28;4900484;28;20111;-75
2022/03/13 11:21:49;;;;;;;14.13;8.52;;;;;;;9.23;42.63;102277.13;4900201;29;20047;-73
2022/03/13 11:24:36;;;;;;;13.20;8.88;;;;;;;9.16;42.37;102272.66;4899784;29;20039;-74
2022/03/13 11:27:25;;;;;;;11.52;7.80;;;;;;;8.82;42.35;102266.13;4899666;29;20457;-74
2022/03/13 11:30:17;;;;;;;14.55;8.73;;;;;;;9.38;41.65;102269.47;4900987;29;20040;-74
2022/03/13 11:33:03;;;;;;;17.00;9.38;;;;;;;9.10;42.49;102268.25;4899366;29;20048;-75
2022/03/13 11:35:49;;;;;;;13.93;8.32;;;;;;;8.88;41.00;102263.59;4899944;29;20115;-75
2022/03/13 11:38:58;;;;;;;21.48;9.18;;;;;;;9.24;42.35;102266.69;4885362;29;20039;-75
2022/03/13 11:41:46;;;;;;;13.82;8.57;;;;;;;9.33;41.86;102265.94;4900211;29;20370;-75
2022/03/13 11:44:33;;;;;;;12.82;8.85;;;;;;;9.07;42.84;102262.09;4901085;29;20374;-75
2022/03/13 11:47:22;;;;;;;14.32;8.85;;;;;;;9.44;41.27;102264.31;4899578;29;20072;-75
2022/03/13 11:50:15;;;;;;;13.35;8.65;;;;;;;10.21;40.42;102262.53;4900397;29;20430;-76
2022/03/13 11:53:23;;;;;;;11.98;8.57;;;;;;;9.91;40.53;102265.69;4899699;29;20061;-75
2022/03/13 11:56:10;;;;;;;13.95;9.43;;;;;;;9.90;41.25;102266.56;4900289;29;20042;-76
2022/03/13 11:59:12;;;;;;;12.95;9.13;;;;;;;9.81;41.12;102261.25;4901128;29;20047;-75
2022/03/13 12:01:58;;;;;;;15.02;9.45;;;;;;;9.32;42.56;102256.31;4902904;29;20028;-74
2022/03/13 12:04:44;;;;;;;13.52;9.13;;;;;;;9.44;41.39;102261.69;4903538;29;20056;-75
2022/03/13 12:07:31;;;;;;;14.32;9.10;;;;;;;9.65;41.90;102262.81;4904444;29;20033;-74
2022/03/13 12:10:41;;;;;;;14.00;9.73;;;;;;;10.09;41.00;102263.31;4904038;29;20035;-74
2022/03/13 12:13:29;;;;;;;15.38;8.95;;;;;;;10.09;40.62;102258.94;4903766;29;20065;-75
2022/03/13 12:16:17;;;;;;;12.85;8.50;;;;;;;9.60;40.26;102261.00;4904110;29;20040;-75
2022/03/13 12:19:04;;;;;;;12.70;9.00;;;;;;;10.44;39.93;102256.59;4904024;29;20032;-75
2022/03/13 12:21:50;;;;;;;15.10;8.95;;;;;;;10.88;39.55;102251.66;4902598;29;20052;-75
2022/03/13 12:24:36;;;;;;;13.05;8.77;;;;;;;9.82;39.79;102268.22;4903506;29;20375;-75
2022/03/13 12:27:23;;;;;;;13.18;8.63;;;;;;;10.53;38.70;102261.91;4906581;29;20382;-73
2022/03/13 12:30:11;;;;;;;15.20;8.23;;;;;;;10.03;38.23;102255.34;4905801;29;20033;-74
2022/03/13 12:33:04;;;;;;;10.70;6.97;;;;;;;10.82;36.69;102262.09;4903851;29;20085;-74
2022/03/13 12:35:56;;;;;;;10.30;6.60;;;;;;;10.35;36.87;102253.91;4903025;29;20426;-74
2022/03/13 12:38:45;;;;;;;14.30;8.85;;;;;;;9.52;37.76;102254.81;4901741;29;20115;-76
2022/03/13 12:41:32;;;;;;;10.57;7.45;;;;;;;10.29;37.69;102261.69;4903714;29;20107;-77
2022/03/13 12:44:18;;;;;;;12.20;8.15;;;;;;;10.55;37.40;102254.94;4902559;29;20570;-74
2022/03/13 12:47:04;;;;;;;22.17;11.35;;;;;;;10.41;37.68;102260.94;4903527;29;20046;-75